Home   Weather   Bosnia-Herzegovina   Sarajevo   Past weeks
Flag for Bosnia-Herzegovina

Past Weather in Sarajevo, Bosnia-Herzegovina — Yesterday and Last 2 Weeks

Currently: 59 °F. Sunny. (Weather station: Sarajevo / Butmir, Bosnia-Herzegovina). See more current weather

Past Weather in Sarajevo — Graph

°F

Sarajevo Temperature Yesterday

Maximum temperature yesterday: 86 °F (at 3:30 pm)
Minimum temperature yesterday: 57 °F (at 5:00 am)
Average temperature yesterday: 72 °F

High & Low Weather Summary for the Past Weeks

 TemperatureHumidityPressure
High95 °F (Aug 6, 2:00 pm)100% (Aug 8, 6:00 am)30.21 "Hg (Aug 8, 6:00 am)
Low54 °F (Aug 12, 6:00 am)20% (Aug 6, 2:00 pm)29.80 "Hg (Aug 15, 6:30 pm)
Average70 °F70%30.01 "Hg
* Reported Aug 3 6:00 am — Aug 18 6:00 am, Sarajevo. Weather by CustomWeather, © 2022

Note: Actual official high and low records may vary slightly from our data, if they occured in-between our weather recording intervals... More about our weather records

Sarajevo Weather History for the Previous 24 Hours

Scroll right to see more
 ConditionsComfort  
Time TempWeatherWind HumidityBarometerVisibility
6:00 am
Thu, Aug 18
59 °FSunny.1 mph94%30.01 "Hg10 mi
5:00 am59 °FClear.3 mph94%30.01 "Hg10 mi
4:00 am59 °FClear.1 mph100%30.01 "Hg10 mi
3:00 am61 °FClear.3 mph94%30.01 "Hg10 mi
1:00 am63 °FClear.2 mph94%30.01 "Hg10 mi
12:00 am64 °FClear.1 mph94%30.01 "Hg10 mi
11:30 pm
Wed, Aug 17
66 °FClear.2 mph83%30.01 "Hg10 mi
11:00 pm68 °FClear.1 mph78%30.01 "Hg10 mi
10:00 pm70 °FPassing clouds.5 mph73%29.98 "HgN/A
9:00 pm72 °FClear.3 mph69%29.98 "Hg10 mi
8:30 pm73 °FPassing clouds.3 mph69%29.98 "HgN/A
8:00 pm77 °FClear.3 mph57%29.95 "Hg10 mi
7:00 pm82 °FSunny.5 mph48%29.95 "Hg10 mi
6:30 pm86 °FPassing clouds.3 mph35%29.95 "HgN/A
6:00 pm86 °FPassing clouds.3 mph38%29.95 "HgN/A
5:30 pm86 °FSunny.3 mph43%29.95 "Hg10 mi
5:00 pm86 °FSunny.3 mph35%29.95 "Hg10 mi
4:30 pm86 °FSunny.5 mph40%29.95 "Hg10 mi
4:00 pm86 °FSunny.5 mph38%29.95 "Hg10 mi
3:30 pm86 °FPassing clouds.5 mph40%29.95 "HgN/A
3:00 pm84 °FPassing clouds.7 mph43%29.95 "HgN/A
2:00 pm84 °FPassing clouds.7 mph43%29.98 "HgN/A
1:00 pm82 °FSunny.5 mph51%29.98 "Hg10 mi
12:30 pm81 °FSunny.5 mph54%29.98 "Hg10 mi
12:00 pm81 °FSunny.2 mph54%29.98 "Hg10 mi
11:00 am75 °FSunny.2 mph65%30.01 "Hg10 mi
10:00 am70 °FSunny.2 mph73%30.01 "Hg10 mi
9:30 am68 °FSunny.2 mph78%30.01 "Hg10 mi
9:00 am66 °FSunny.1 mph83%30.01 "Hg10 mi
8:30 am64 °FSunny.1 mph88%30.01 "Hg10 mi
8:00 am61 °FSunny.2 mph94%30.01 "Hg10 mi
7:00 am57 °FPassing clouds.1 mph100%30.01 "HgN/A
Weather by CustomWeather, © 2022

See weather overview